Time;durP1;ratioP1;P1;durP2;ratioP2;P2;SDS_P1;SDS_P2;PMS_P1;PMS_P2;Temp;Humidity;BMP_temperature;BMP_pressure;BME280_temperature;BME280_humidity;BME280_pressure;Samples;Min_cycle;Max_cycle;Signal;HPM_P1;HPM_P2
2023/03/24 00:01:49;;;;;;;;;;;12.80;99.90;;;;;;5097271;28;19981;-86
2023/03/24 00:04:15;;;;;;;;;;;12.80;99.90;;;;;;5079403;28;19916;-86
2023/03/24 00:06:42;;;;;;;;;;;12.80;99.90;;;;;;5095592;28;19977;-85
2023/03/24 00:09:08;;;;;;;;;;;12.70;99.90;;;;;;5096183;28;19912;-86
2023/03/24 00:11:34;;;;;;;;;;;12.70;99.90;;;;;;5096112;28;19922;-87
2023/03/24 00:14:00;;;;;;;;;;;12.70;99.90;;;;;;5096573;28;20359;-88
2023/03/24 00:16:26;;;;;;;;;;;12.70;99.90;;;;;;5095929;28;19908;-87
2023/03/24 00:18:51;;;;;;;;;;;12.70;99.90;;;;;;5096113;28;19961;-87
2023/03/24 00:21:20;;;;;;;;;;;12.70;99.90;;;;;;5108028;28;19920;-86
2023/03/24 00:23:46;;;;;;;;;;;12.70;99.90;;;;;;5116967;28;19909;-87
2023/03/24 00:26:15;;;;;;;;;;;12.70;99.90;;;;;;5118325;28;19900;-88
2023/03/24 00:28:45;;;;;;;;;;;12.70;99.90;;;;;;5119596;28;19896;-86
2023/03/24 00:31:14;;;;;;;;;;;12.70;99.90;;;;;;5116518;28;19956;-88
2023/03/24 00:33:41;;;;;;;;;;;12.70;99.90;;;;;;5117115;28;19914;-87
2023/03/24 00:36:10;;;;;;;;;;;12.70;99.90;;;;;;5117723;28;19922;-88
2023/03/24 00:38:43;;;;;;;;;;;12.60;99.90;;;;;;5094078;28;19909;-89
2023/03/24 00:41:12;;;;;;;;;;;12.70;99.90;;;;;;5076970;28;19978;-88
2023/03/24 00:43:38;;;;;;;;;;;12.70;99.90;;;;;;5075296;28;19909;-87
2023/03/24 00:46:05;;;;;;;;;;;12.70;99.90;;;;;;5075368;28;19920;-87
2023/03/24 00:48:31;;;;;;;;;;;12.70;99.90;;;;;;5078082;28;19934;-91
2023/03/24 00:50:57;;;;;;;;;;;12.70;99.90;;;;;;5074637;28;19908;-87
2023/03/24 00:53:24;;;;;;;;;;;12.60;99.90;;;;;;5075199;28;20042;-89
2023/03/24 00:55:50;;;;;;;;;;;12.70;99.90;;;;;;5089714;28;19909;-88
2023/03/24 00:58:18;;;;;;;;;;;12.60;99.90;;;;;;5074951;28;19912;-86
2023/03/24 01:00:48;;;;;;;;;;;12.70;99.90;;;;;;5075428;28;19956;-86
2023/03/24 01:03:14;;;;;;;;;;;12.70;99.90;;;;;;5074157;28;20375;-88
2023/03/24 01:05:41;;;;;;;;;;;12.70;99.90;;;;;;5075958;28;19908;-86
2023/03/24 01:08:07;;;;;;;;;;;12.70;99.90;;;;;;5075083;28;19916;-89
2023/03/24 01:10:34;;;;;;;;;;;12.70;99.90;;;;;;5075405;28;20351;-89
2023/03/24 01:13:01;;;;;;;;;;;12.70;99.90;;;;;;5076497;28;19909;-85
2023/03/24 01:15:28;;;;;;;;;;;12.70;99.90;;;;;;5091650;28;19935;-87
2023/03/24 01:17:54;;;;;;;;;;;12.70;99.90;;;;;;5075989;28;19958;-87
2023/03/24 01:20:21;;;;;;;;;;;12.70;99.90;;;;;;5078810;28;19924;-89
2023/03/24 01:22:47;;;;;;;;;;;12.80;99.90;;;;;;5082354;28;19916;-87
2023/03/24 01:25:15;;;;;;;;;;;12.80;99.90;;;;;;5094665;28;19908;-87
2023/03/24 01:27:44;;;;;;;;;;;12.80;99.90;;;;;;5096704;28;19955;-90
2023/03/24 01:30:12;;;;;;;;;;;12.90;99.90;;;;;;5095929;28;20295;-88
2023/03/24 01:32:38;;;;;;;;;;;12.80;99.90;;;;;;5089918;28;19909;-87
2023/03/24 01:35:04;;;;;;;;;;;12.90;99.90;;;;;;5075396;28;19954;-90
2023/03/24 01:37:29;;;;;;;;;;;12.90;99.90;;;;;;5086448;28;19959;-90
2023/03/24 01:39:55;;;;;;;;;;;12.90;99.90;;;;;;5074125;28;20027;-91
2023/03/24 01:42:22;;;;;;;;;;;12.90;99.90;;;;;;5073787;28;20425;-86
2023/03/24 01:44:49;;;;;;;;;;;13.00;99.90;;;;;;5074255;28;19958;-88
2023/03/24 01:47:16;;;;;;;;;;;13.00;99.90;;;;;;5085608;28;19912;-87
2023/03/24 01:49:49;;;;;;;;;;;13.00;99.90;;;;;;5095656;28;19908;-87
2023/03/24 01:52:17;;;;;;;;;;;13.00;99.90;;;;;;5077508;28;19913;-89
2023/03/24 01:54:47;;;;;;;;;;;13.00;99.90;;;;;;5094166;28;19909;-87
2023/03/24 01:57:16;;;;;;;;;;;13.10;99.90;;;;;;5094367;28;19952;-85
2023/03/24 01:59:45;;;;;;;;;;;13.10;99.90;;;;;;5094897;28;19947;-89
2023/03/24 02:02:12;;;;;;;;;;;13.10;99.90;;;;;;5094351;28;19908;-92
2023/03/24 02:04:42;;;;;;;;;;;13.10;99.90;;;;;;5090354;28;19916;-87
2023/03/24 02:07:22;;;;;;;;;;;13.10;99.90;;;;;;5076173;28;20697;-89
2023/03/24 02:09:47;;;;;;;;;;;13.10;99.90;;;;;;5074001;28;19909;-87
2023/03/24 02:12:13;;;;;;;;;;;13.10;99.90;;;;;;5074140;28;19948;-85
2023/03/24 02:14:39;;;;;;;;;;;13.10;99.90;;;;;;5073675;28;19920;-89
2023/03/24 02:17:20;;;;;;;;;;;13.00;99.90;;;;;;5057011;28;19966;-85
2023/03/24 02:19:46;;;;;;;;;;;13.10;99.90;;;;;;5074005;28;19908;-86
2023/03/24 02:25:16;;;;;;;;;;;13.00;99.90;;;;;;5074796;28;20289;-88
2023/03/24 02:27:41;;;;;;;;;;;13.00;99.90;;;;;;5073600;28;19916;-86
2023/03/24 02:30:07;;;;;;;;;;;13.00;99.90;;;;;;5073818;28;19909;-87
2023/03/24 02:32:35;;;;;;;;;;;13.10;99.90;;;;;;5073701;28;19908;-88
2023/03/24 02:35:01;;;;;;;;;;;13.10;99.90;;;;;;5073196;28;19909;-88
2023/03/24 02:37:45;;;;;;;;;;;13.10;99.90;;;;;;5091464;28;19914;-87
2023/03/24 02:40:11;;;;;;;;;;;13.00;99.90;;;;;;5085853;28;20365;-88
2023/03/24 02:42:48;;;;;;;;;;;13.10;99.90;;;;;;5091298;28;19920;-87
2023/03/24 02:45:32;;;;;;;;;;;13.10;99.90;;;;;;5076877;28;19915;-87
2023/03/24 02:48:16;;;;;;;;;;;13.10;99.90;;;;;;5078462;28;19930;-88
2023/03/24 02:50:51;;;;;;;;;;;13.10;99.90;;;;;;5099446;28;19908;-86
2023/03/24 02:53:20;;;;;;;;;;;13.10;99.90;;;;;;5080405;28;19930;-86
2023/03/24 02:55:58;;;;;;;;;;;13.10;99.90;;;;;;5098342;28;19915;-87
2023/03/24 02:58:30;;;;;;;;;;;13.10;99.90;;;;;;5079509;28;19909;-86
2023/03/24 03:01:16;;;;;;;;;;;13.00;99.90;;;;;;5080400;28;20390;-87
2023/03/24 03:03:50;;;;;;;;;;;13.10;99.90;;;;;;5080101;28;19957;-86
2023/03/24 03:06:20;;;;;;;;;;;13.10;99.90;;;;;;5079952;28;19961;-85
2023/03/24 03:08:46;;;;;;;;;;;13.10;99.90;;;;;;5092333;28;19912;-85
2023/03/24 03:11:13;;;;;;;;;;;13.10;99.90;;;;;;5083155;28;19912;-86
2023/03/24 03:13:41;;;;;;;;;;;13.10;99.90;;;;;;5099816;28;20438;-87
2023/03/24 03:16:14;;;;;;;;;;;13.20;99.90;;;;;;5100156;28;20002;-87
2023/03/24 03:18:49;;;;;;;;;;;13.10;99.90;;;;;;5100901;28;20260;-87
2023/03/24 03:21:17;;;;;;;;;;;13.10;99.90;;;;;;5100149;28;20399;-88
2023/03/24 03:23:45;;;;;;;;;;;13.20;99.90;;;;;;5100313;28;19915;-88
2023/03/24 03:26:15;;;;;;;;;;;13.20;99.90;;;;;;5110248;28;19908;-88
2023/03/24 03:28:48;;;;;;;;;;;13.10;99.90;;;;;;5091688;28;19908;-89
2023/03/24 03:31:17;;;;;;;;;;;13.10;99.90;;;;;;5084027;28;19914;-88
2023/03/24 03:33:57;;;;;;;;;;;13.00;99.90;;;;;;5080270;28;20049;-88
2023/03/24 03:36:28;;;;;;;;;;;12.90;99.90;;;;;;5079986;28;20048;-87
2023/03/24 03:39:07;;;;;;;;;;;12.80;99.90;;;;;;5079837;28;19915;-88
2023/03/24 03:41:32;;;;;;;;;;;12.80;99.90;;;;;;5080381;28;19919;-88
2023/03/24 03:43:59;;;;;;;;;;;12.70;99.90;;;;;;5090165;28;19916;-88
2023/03/24 03:46:25;;;;;;;;;;;12.70;99.90;;;;;;5084254;28;19920;-87
2023/03/24 03:48:51;;;;;;;;;;;12.60;99.90;;;;;;5103030;28;19912;-90
2023/03/24 03:51:17;;;;;;;;;;;12.60;99.90;;;;;;5100777;28;19901;-91
2023/03/24 03:53:49;;;;;;;;;;;12.60;99.90;;;;;;5106428;27;19896;-87
2023/03/24 03:56:18;;;;;;;;;;;12.50;99.90;;;;;;5140714;27;19904;-93
2023/03/24 03:58:46;;;;;;;;;;;12.50;99.90;;;;;;5108514;28;19934;-90
2023/03/24 04:01:14;;;;;;;;;;;12.50;99.90;;;;;;5118346;28;19916;-93
2023/03/24 04:03:59;;;;;;;;;;;12.40;99.90;;;;;;5103857;28;19916;-89
2023/03/24 04:06:36;;;;;;;;;;;12.40;99.90;;;;;;5115903;28;19957;-88
2023/03/24 04:09:23;;;;;;;;;;;12.30;99.90;;;;;;5095206;28;19943;-90
2023/03/24 04:12:01;;;;;;;;;;;12.30;99.90;;;;;;5080113;28;19999;-89
2023/03/24 04:14:33;;;;;;;;;;;12.20;99.90;;;;;;5079752;28;19908;-89
2023/03/24 04:17:17;;;;;;;;;;;12.20;99.90;;;;;;5079446;28;19979;-89
2023/03/24 04:19:43;;;;;;;;;;;12.10;99.90;;;;;;5096642;28;19908;-88
2023/03/24 04:22:18;;;;;;;;;;;12.00;99.90;;;;;;5096625;28;19918;-91
2023/03/24 04:24:50;;;;;;;;;;;12.00;99.90;;;;;;5096701;28;20405;-89
2023/03/24 04:27:26;;;;;;;;;;;12.00;99.90;;;;;;5097011;28;19951;-90
2023/03/24 04:29:51;;;;;;;;;;;11.90;99.90;;;;;;5098762;28;19907;-89
2023/03/24 04:32:27;;;;;;;;;;;11.90;99.90;;;;;;5098591;28;19918;-87
2023/03/24 04:35:00;;;;;;;;;;;11.90;99.90;;;;;;5116774;28;19915;-86
2023/03/24 04:37:31;;;;;;;;;;;11.80;99.90;;;;;;5098705;28;20371;-87
2023/03/24 04:39:58;;;;;;;;;;;11.80;99.90;;;;;;5098954;28;19915;-86
2023/03/24 04:42:31;;;;;;;;;;;11.80;99.90;;;;;;5097958;28;19920;-87
2023/03/24 04:44:56;;;;;;;;;;;11.80;99.90;;;;;;5116903;28;19919;-87
2023/03/24 04:47:24;;;;;;;;;;;11.80;99.90;;;;;;5117492;28;19911;-87
2023/03/24 04:49:50;;;;;;;;;;;11.80;99.90;;;;;;5098921;28;19915;-88
2023/03/24 04:52:15;;;;;;;;;;;11.80;99.90;;;;;;5101242;28;19909;-87
2023/03/24 04:54:41;;;;;;;;;;;11.70;99.90;;;;;;5078382;28;19919;-88
2023/03/24 04:57:06;;;;;;;;;;;11.70;99.90;;;;;;5078455;28;20359;-88
2023/03/24 04:59:33;;;;;;;;;;;11.70;99.90;;;;;;5061794;28;19918;-87
2023/03/24 05:02:01;;;;;;;;;;;11.70;99.90;;;;;;5078395;28;19916;-88
2023/03/24 05:04:28;;;;;;;;;;;11.60;99.90;;;;;;5096445;28;19908;-89
2023/03/24 05:06:54;;;;;;;;;;;11.60;99.90;;;;;;5079223;28;19916;-88
2023/03/24 05:09:21;;;;;;;;;;;11.50;99.90;;;;;;5079173;28;20257;-88
2023/03/24 05:11:47;;;;;;;;;;;11.60;99.90;;;;;;5098438;28;19957;-88
2023/03/24 05:14:13;;;;;;;;;;;11.50;99.90;;;;;;5099031;28;19915;-88
2023/03/24 05:16:39;;;;;;;;;;;11.60;99.90;;;;;;5117112;28;19915;-87
2023/03/24 05:19:04;;;;;;;;;;;11.50;99.90;;;;;;5098707;28;19912;-89
2023/03/24 05:21:30;;;;;;;;;;;11.50;99.90;;;;;;5097939;28;19924;-88
2023/03/24 05:23:56;;;;;;;;;;;11.50;99.90;;;;;;5084057;28;19953;-89
2023/03/24 05:26:21;;;;;;;;;;;11.40;99.90;;;;;;5088649;28;19919;-88
2023/03/24 05:28:47;;;;;;;;;;;11.40;99.90;;;;;;5078261;28;19955;-89
2023/03/24 05:31:12;;;;;;;;;;;11.40;99.90;;;;;;5094938;28;19908;-88
2023/03/24 05:33:38;;;;;;;;;;;11.40;99.90;;;;;;5097132;28;19916;-89
2023/03/24 05:36:04;;;;;;;;;;;11.40;99.90;;;;;;5080371;28;19919;-90
2023/03/24 05:38:29;;;;;;;;;;;11.40;99.90;;;;;;5079068;28;19908;-89
2023/03/24 05:40:58;;;;;;;;;;;11.40;99.90;;;;;;5101383;28;19930;-90
2023/03/24 05:43:24;;;;;;;;;;;11.30;99.90;;;;;;5099905;28;19920;-89
2023/03/24 05:45:49;;;;;;;;;;;11.30;99.90;;;;;;5117831;28;20356;-88
2023/03/24 05:48:15;;;;;;;;;;;11.30;99.90;;;;;;5091533;28;19955;-85
2023/03/24 05:50:41;;;;;;;;;;;11.20;99.90;;;;;;5092839;28;19915;-87
2023/03/24 05:53:06;;;;;;;;;;;11.20;99.90;;;;;;5078150;28;19970;-88
2023/03/24 05:55:32;;;;;;;;;;;11.20;99.90;;;;;;5061463;28;20386;-86
2023/03/24 05:58:00;;;;;;;;;;;11.20;99.90;;;;;;5077984;28;20004;-87
2023/03/24 06:00:27;;;;;;;;;;;11.20;99.90;;;;;;5096234;28;19916;-87
2023/03/24 06:02:53;;;;;;;;;;;11.20;99.90;;;;;;5061582;28;19916;-88
2023/03/24 06:05:19;;;;;;;;;;;11.30;99.90;;;;;;5077947;28;19908;-89
2023/03/24 06:07:44;;;;;;;;;;;11.30;99.90;;;;;;5096177;28;19947;-88
2023/03/24 06:10:10;;;;;;;;;;;11.30;99.90;;;;;;5078412;28;19914;-88
2023/03/24 06:12:36;;;;;;;;;;;11.30;99.90;;;;;;5081060;28;19909;-88
2023/03/24 06:15:02;;;;;;;;;;;11.20;99.90;;;;;;5091290;28;19931;-88
2023/03/24 06:17:29;;;;;;;;;;;11.20;99.90;;;;;;5089142;28;19908;-88
2023/03/24 06:20:01;;;;;;;;;;;11.20;99.90;;;;;;5076503;28;19912;-88
2023/03/24 06:22:28;;;;;;;;;;;11.30;99.90;;;;;;5109987;28;19951;-87
2023/03/24 06:24:55;;;;;;;;;;;11.20;99.90;;;;;;5109352;28;20013;-89
2023/03/24 06:27:24;;;;;;;;;;;11.20;99.90;;;;;;5102619;28;19908;-89
2023/03/24 06:29:50;;;;;;;;;;;11.20;99.90;;;;;;5093272;28;19915;-87
2023/03/24 06:32:17;;;;;;;;;;;11.20;99.90;;;;;;5082396;28;20016;-86
2023/03/24 06:37:48;;;;;;;;;;;11.10;99.90;;;;;;5111928;28;20044;-90
2023/03/24 06:40:16;;;;;;;;;;;11.10;99.90;;;;;;5086321;28;19919;-91
2023/03/24 06:42:42;;;;;;;;;;;11.20;99.90;;;;;;5103576;28;20074;-90
2023/03/24 06:45:08;;;;;;;;;;;11.30;99.90;;;;;;5086240;28;19983;-91
2023/03/24 06:47:35;;;;;;;;;;;11.30;99.90;;;;;;5103919;28;20007;-90
2023/03/24 06:50:01;;;;;;;;;;;11.30;99.90;;;;;;5104141;28;19915;-90
2023/03/24 06:52:27;;;;;;;;;;;11.30;99.90;;;;;;5102301;28;19908;-91
2023/03/24 06:54:52;;;;;;;;;;;11.40;99.90;;;;;;5084854;28;19919;-88
2023/03/24 06:57:18;;;;;;;;;;;11.30;99.90;;;;;;5102676;28;19911;-89
2023/03/24 06:59:43;;;;;;;;;;;11.40;99.90;;;;;;5120192;28;20294;-87
2023/03/24 07:02:11;;;;;;;;;;;11.40;99.90;;;;;;5085193;28;19912;-87
2023/03/24 07:04:37;;;;;;;;;;;11.40;99.90;;;;;;5101355;28;19915;-89
2023/03/24 07:07:02;;;;;;;;;;;11.40;99.90;;;;;;5097706;28;19912;-87
2023/03/24 07:09:28;;;;;;;;;;;11.40;99.90;;;;;;5089387;28;19908;-89
2023/03/24 07:11:54;;;;;;;;;;;11.60;99.90;;;;;;5089632;28;20267;-88
2023/03/24 07:14:20;;;;;;;;;;;11.50;99.90;;;;;;5084717;28;19912;-90
2023/03/24 07:16:46;;;;;;;;;;;11.50;99.90;;;;;;5097961;28;19915;-88
2023/03/24 07:19:12;;;;;;;;;;;11.60;99.90;;;;;;5114929;28;19924;-92
2023/03/24 07:21:37;;;;;;;;;;;11.60;99.90;;;;;;5118611;28;19977;-90
2023/03/24 07:24:03;;;;;;;;;;;11.60;99.90;;;;;;5100523;28;19912;-91
2023/03/24 07:26:31;;;;;;;;;;;11.60;99.90;;;;;;5119952;27;19960;-93
2023/03/24 07:28:56;;;;;;;;;;;11.60;99.90;;;;;;5093323;28;19912;-90
2023/03/24 07:31:23;;;;;;;;;;;11.70;99.90;;;;;;5106330;28;19923;-92
2023/03/24 07:33:49;;;;;;;;;;;11.70;99.90;;;;;;5091509;28;19915;-91
2023/03/24 07:36:15;;;;;;;;;;;11.70;99.90;;;;;;5076699;28;20030;-89
2023/03/24 07:38:41;;;;;;;;;;;11.70;99.90;;;;;;5093936;28;20270;-87
2023/03/24 07:41:06;;;;;;;;;;;11.80;99.90;;;;;;5096846;28;20010;-88
2023/03/24 07:43:32;;;;;;;;;;;11.80;99.90;;;;;;5081968;28;20379;-87
2023/03/24 07:45:57;;;;;;;;;;;11.90;99.90;;;;;;5103941;28;20329;-87
2023/03/24 07:48:23;;;;;;;;;;;11.90;99.90;;;;;;5099435;28;19908;-90
2023/03/24 07:50:51;;;;;;;;;;;11.90;99.90;;;;;;5091206;28;20618;-88
2023/03/24 07:53:18;;;;;;;;;;;11.90;99.90;;;;;;5089520;28;19908;-90
2023/03/24 07:55:44;;;;;;;;;;;12.00;99.90;;;;;;5117975;28;19908;-90
2023/03/24 07:58:10;;;;;;;;;;;11.90;99.90;;;;;;5081163;28;19918;-91
2023/03/24 08:00:37;;;;;;;;;;;11.90;99.90;;;;;;5108263;28;20049;-89
2023/03/24 08:03:08;;;;;;;;;;;11.90;99.90;;;;;;5091946;28;19908;-89
2023/03/24 08:05:36;;;;;;;;;;;11.90;99.90;;;;;;5086701;28;19908;-91
2023/03/24 08:08:03;;;;;;;;;;;11.90;99.90;;;;;;5075865;28;20025;-91
2023/03/24 08:10:30;;;;;;;;;;;12.00;99.90;;;;;;5089336;28;20276;-91
2023/03/24 08:12:56;;;;;;;;;;;12.00;99.90;;;;;;5084284;28;19912;-91
2023/03/24 08:15:22;;;;;;;;;;;12.00;99.90;;;;;;5084382;28;19908;-90
2023/03/24 08:17:48;;;;;;;;;;;12.10;99.90;;;;;;5090014;28;19987;-90
2023/03/24 08:20:14;;;;;;;;;;;12.10;99.90;;;;;;5086960;28;19917;-90
2023/03/24 08:22:46;;;;;;;;;;;12.20;99.90;;;;;;5093444;28;19919;-89
2023/03/24 08:25:12;;;;;;;;;;;12.20;99.90;;;;;;5086620;28;19908;-88
2023/03/24 08:27:38;;;;;;;;;;;12.20;99.90;;;;;;5088376;28;19915;-87
2023/03/24 08:30:06;;;;;;;;;;;12.30;99.90;;;;;;5086699;28;19908;-88
2023/03/24 08:32:32;;;;;;;;;;;12.30;99.90;;;;;;5082625;28;20422;-88
2023/03/24 08:34:57;;;;;;;;;;;12.30;99.90;;;;;;5096058;28;19915;-88
2023/03/24 08:37:23;;;;;;;;;;;12.40;99.90;;;;;;5106025;28;19913;-88
2023/03/24 08:39:49;;;;;;;;;;;12.40;99.90;;;;;;5088253;28;19954;-88
2023/03/24 08:42:14;;;;;;;;;;;12.50;99.90;;;;;;5086090;28;19931;-88
2023/03/24 08:44:40;;;;;;;;;;;12.50;99.90;;;;;;5091757;28;19908;-93
2023/03/24 08:47:06;;;;;;;;;;;12.50;99.90;;;;;;5102770;28;19908;-92
2023/03/24 08:49:31;;;;;;;;;;;12.50;99.90;;;;;;5071286;28;19944;-89
2023/03/24 08:51:57;;;;;;;;;;;12.60;99.90;;;;;;5072458;28;19916;-86
2023/03/24 08:54:23;;;;;;;;;;;12.60;99.90;;;;;;5088531;28;19907;-90
2023/03/24 08:56:49;;;;;;;;;;;12.60;99.90;;;;;;5087143;28;19912;-88
2023/03/24 08:59:15;;;;;;;;;;;12.70;99.90;;;;;;5086943;28;19916;-90
2023/03/24 09:01:43;;;;;;;;;;;12.70;99.90;;;;;;5065475;28;19920;-88
2023/03/24 09:04:09;;;;;;;;;;;12.80;99.90;;;;;;5075379;28;19947;-88
2023/03/24 09:06:35;;;;;;;;;;;12.80;99.90;;;;;;5081786;28;19909;-87
2023/03/24 09:09:01;;;;;;;;;;;12.80;99.90;;;;;;5069664;28;19912;-87
2023/03/24 09:11:26;;;;;;;;;;;12.90;99.90;;;;;;5086123;28;19915;-87
2023/03/24 09:13:52;;;;;;;;;;;13.00;99.90;;;;;;5082892;28;19909;-88
2023/03/24 09:16:18;;;;;;;;;;;13.00;99.90;;;;;;5083094;28;19911;-88
2023/03/24 09:18:45;;;;;;;;;;;13.00;99.90;;;;;;5083001;28;19981;-88
2023/03/24 09:21:10;;;;;;;;;;;13.10;99.90;;;;;;5082503;28;19979;-87
2023/03/24 09:23:36;;;;;;;;;;;13.20;99.90;;;;;;5102850;28;20334;-88
2023/03/24 09:26:02;;;;;;;;;;;13.20;99.90;;;;;;5085856;28;20347;-88
2023/03/24 09:28:36;;;;;;;;;;;13.30;99.90;;;;;;5101814;28;19959;-88
2023/03/24 09:34:06;;;;;;;;;;;13.30;99.90;;;;;;5116015;28;19935;-87
2023/03/24 09:36:32;;;;;;;;;;;13.30;99.90;;;;;;5092931;28;19908;-87
2023/03/24 09:38:58;;;;;;;;;;;13.40;99.90;;;;;;5092217;28;19928;-90
2023/03/24 09:41:27;;;;;;;;;;;13.40;99.90;;;;;;5084935;28;20011;-87
2023/03/24 09:43:58;;;;;;;;;;;13.40;99.90;;;;;;5109134;28;19908;-87
2023/03/24 09:46:32;;;;;;;;;;;13.40;99.90;;;;;;5083817;28;20029;-87
2023/03/24 09:52:19;;;;;;;;;;;13.40;99.90;;;;;;5107511;28;20324;-90
2023/03/24 09:54:50;;;;;;;;;;;13.40;99.90;;;;;;5085009;28;19916;-87
2023/03/24 09:57:41;;;;;;;;;;;13.50;99.90;;;;;;5113930;28;19908;-86
2023/03/24 10:00:27;;;;;;;;;;;13.50;99.90;;;;;;5086402;28;20050;-88
2023/03/24 10:02:53;;;;;;;;;;;13.60;99.90;;;;;;5089236;28;19912;-91
2023/03/24 10:05:40;;;;;;;;;;;13.60;99.90;;;;;;5091227;28;19964;-86
2023/03/24 10:08:35;;;;;;;;;;;13.70;99.90;;;;;;5095993;28;19912;-89
2023/03/24 10:11:03;;;;;;;;;;;13.70;99.90;;;;;;5082373;28;19909;-88
2023/03/24 10:13:58;;;;;;;;;;;13.60;99.90;;;;;;5098244;28;19994;-87
2023/03/24 10:16:31;;;;;;;;;;;13.60;99.90;;;;;;5094895;28;19912;-89
2023/03/24 10:19:03;;;;;;;;;;;13.60;99.90;;;;;;5094049;28;19912;-88
2023/03/24 10:21:29;;;;;;;;;;;13.70;99.90;;;;;;5089871;28;19919;-87
2023/03/24 10:24:03;;;;;;;;;;;13.70;99.90;;;;;;5095772;28;19961;-89
2023/03/24 10:26:39;;;;;;;;;;;13.70;99.90;;;;;;5086100;28;19908;-89
2023/03/24 10:29:08;;;;;;;;;;;13.80;99.90;;;;;;5094523;28;19949;-92
2023/03/24 10:31:37;;;;;;;;;;;13.70;99.90;;;;;;5098945;28;19912;-90
2023/03/24 10:34:03;;;;;;;;;;;13.90;99.90;;;;;;5085022;28;20242;-90
2023/03/24 10:36:29;;;;;;;;;;;13.90;99.90;;;;;;5085602;28;20006;-89
2023/03/24 10:38:55;;;;;;;;;;;14.00;99.90;;;;;;5090825;28;19912;-88
2023/03/24 10:41:22;;;;;;;;;;;14.10;99.90;;;;;;5089435;28;20408;-88
2023/03/24 10:43:50;;;;;;;;;;;14.20;99.90;;;;;;5087787;28;19908;-89
2023/03/24 10:46:18;;;;;;;;;;;14.20;99.90;;;;;;5105535;28;19908;-89
2023/03/24 10:48:45;;;;;;;;;;;14.30;99.90;;;;;;5091423;28;19908;-87
2023/03/24 10:51:33;;;;;;;;;;;14.20;99.90;;;;;;5104761;28;19975;-90
2023/03/24 10:54:32;;;;;;;;;;;14.10;99.90;;;;;;5110662;28;19943;-86
2023/03/24 10:57:02;;;;;;;;;;;14.10;99.90;;;;;;5068944;28;19956;-90
2023/03/24 10:59:37;;;;;;;;;;;14.00;99.90;;;;;;5107917;28;19930;-90
2023/03/24 11:02:09;;;;;;;;;;;14.10;99.90;;;;;;5111440;28;19924;-95
2023/03/24 11:04:48;;;;;;;;;;;14.00;99.90;;;;;;5104391;28;19916;-94
2023/03/24 11:07:19;;;;;;;;;;;13.90;99.90;;;;;;5114434;28;19938;-91
2023/03/24 11:10:00;;;;;;;;;;;13.90;99.90;;;;;;5084593;28;20419;-88
2023/03/24 11:12:27;;;;;;;;;;;13.90;99.90;;;;;;5082277;28;20394;-90
2023/03/24 11:15:16;;;;;;;;;;;14.00;99.90;;;;;;5088824;28;19949;-86
2023/03/24 11:17:43;;;;;;;;;;;14.10;99.90;;;;;;5082960;28;19908;-92
2023/03/24 11:20:38;;;;;;;;;;;14.10;99.90;;;;;;5087939;28;19916;-89
2023/03/24 11:23:03;;;;;;;;;;;14.20;99.90;;;;;;5075532;28;19912;-89
2023/03/24 11:25:31;;;;;;;;;;;14.20;99.90;;;;;;5088097;28;20370;-87
2023/03/24 11:28:01;;;;;;;;;;;14.20;99.90;;;;;;5088026;28;20265;-88
2023/03/24 11:30:31;;;;;;;;;;;14.20;99.90;;;;;;5102388;28;19908;-88
2023/03/24 11:32:57;;;;;;;;;;;14.20;99.90;;;;;;5088617;28;20534;-88
2023/03/24 11:35:22;;;;;;;;;;;14.10;99.90;;;;;;5074071;28;19912;-90
2023/03/24 11:37:48;;;;;;;;;;;14.10;99.90;;;;;;5084036;28;19948;-89
2023/03/24 11:40:14;;;;;;;;;;;14.10;99.90;;;;;;5091495;28;20416;-88
2023/03/24 11:42:50;;;;;;;;;;;14.00;99.90;;;;;;5079658;28;19920;-88
2023/03/24 11:45:22;;;;;;;;;;;13.90;99.90;;;;;;5076482;28;19916;-88
2023/03/24 11:47:49;;;;;;;;;;;13.90;99.90;;;;;;5077301;28;19909;-90
2023/03/24 11:50:18;;;;;;;;;;;14.00;99.90;;;;;;5076406;28;19908;-89
2023/03/24 11:52:47;;;;;;;;;;;13.90;99.90;;;;;;5080804;28;19909;-86
2023/03/24 11:55:31;;;;;;;;;;;13.90;99.90;;;;;;5077314;28;20398;-93
2023/03/24 11:57:56;;;;;;;;;;;14.00;99.90;;;;;;5081049;28;19999;-88
2023/03/24 12:00:45;;;;;;;;;;;14.10;99.90;;;;;;5077454;28;20005;-88
2023/03/24 12:03:26;;;;;;;;;;;14.10;99.90;;;;;;5081685;28;19915;-88
2023/03/24 12:05:57;;;;;;;;;;;14.10;99.90;;;;;;5080680;28;19954;-89
2023/03/24 12:08:23;;;;;;;;;;;14.00;99.90;;;;;;5082802;28;19916;-93
2023/03/24 12:11:07;;;;;;;;;;;14.00;99.90;;;;;;5090229;28;20271;-90
2023/03/24 12:13:33;;;;;;;;;;;13.90;99.90;;;;;;5090446;28;19962;-86
2023/03/24 12:15:59;;;;;;;;;;;13.80;99.90;;;;;;5076702;28;20364;-89
2023/03/24 12:18:33;;;;;;;;;;;13.70;99.90;;;;;;5079285;28;19940;-91
2023/03/24 12:21:03;;;;;;;;;;;13.60;99.90;;;;;;5081469;28;19967;-89
2023/03/24 12:23:32;;;;;;;;;;;13.60;99.90;;;;;;5078035;28;19908;-88
2023/03/24 12:26:03;;;;;;;;;;;13.60;99.90;;;;;;5088176;28;19934;-88
2023/03/24 12:28:41;;;;;;;;;;;13.50;99.90;;;;;;5088010;28;19908;-91
2023/03/24 12:31:27;;;;;;;;;;;13.40;99.90;;;;;;5084088;28;19991;-87
2023/03/24 12:34:11;;;;;;;;;;;13.40;99.90;;;;;;5082032;28;19912;-90
2023/03/24 12:36:37;;;;;;;;;;;13.30;99.90;;;;;;5083324;28;20263;-88
2023/03/24 12:39:25;;;;;;;;;;;13.30;99.90;;;;;;5076116;28;19908;-87
2023/03/24 12:51:09;;;;;;;;;;;13.00;99.90;;;;;;5075439;28;19915;-88
2023/03/24 12:53:40;;;;;;;;;;;12.90;99.90;;;;;;5090037;28;19908;-88
2023/03/24 12:56:17;;;;;;;;;;;12.90;99.90;;;;;;5095720;28;20050;-91
2023/03/24 12:58:45;;;;;;;;;;;13.00;99.90;;;;;;5076440;28;19908;-88
2023/03/24 13:01:11;;;;;;;;;;;13.20;99.90;;;;;;5075454;28;19920;-90
2023/03/24 13:03:44;;;;;;;;;;;13.20;99.90;;;;;;5089928;28;20359;-90
2023/03/24 13:06:15;;;;;;;;;;;13.40;99.90;;;;;;5075729;28;19915;-88
2023/03/24 13:08:48;;;;;;;;;;;13.50;99.90;;;;;;5080508;28;19947;-90
2023/03/24 13:11:16;;;;;;;;;;;13.60;99.90;;;;;;5076235;28;19969;-90
2023/03/24 13:13:43;;;;;;;;;;;13.70;99.90;;;;;;5075139;28;19913;-87
2023/03/24 13:16:16;;;;;;;;;;;13.90;99.90;;;;;;5077539;28;19909;-93
2023/03/24 13:18:47;;;;;;;;;;;13.90;99.90;;;;;;5087392;28;19915;-88
2023/03/24 13:21:27;;;;;;;;;;;14.10;99.90;;;;;;5090090;28;19957;-91
2023/03/24 13:24:17;;;;;;;;;;;14.10;99.90;;;;;;5088182;28;19916;-87
2023/03/24 13:26:42;;;;;;;;;;;14.20;99.90;;;;;;5086467;28;19919;-88
2023/03/24 13:29:26;;;;;;;;;;;14.20;99.90;;;;;;5081827;28;19908;-88
2023/03/24 13:31:58;;;;;;;;;;;14.10;99.90;;;;;;5077596;28;19920;-88
2023/03/24 13:34:30;;;;;;;;;;;14.10;99.90;;;;;;5075008;28;19909;-88
2023/03/24 13:37:02;;;;;;;;;;;14.10;99.90;;;;;;5075242;28;19920;-87
2023/03/24 13:39:28;;;;;;;;;;;14.10;99.90;;;;;;5077477;28;20007;-86
2023/03/24 13:41:56;;;;;;;;;;;13.90;99.90;;;;;;5073627;28;19924;-88
2023/03/24 13:44:25;;;;;;;;;;;13.90;99.90;;;;;;5074742;28;20280;-86
2023/03/24 13:46:59;;;;;;;;;;;13.80;99.90;;;;;;5075867;28;19913;-87
2023/03/24 13:49:24;;;;;;;;;;;13.70;99.90;;;;;;5074502;28;19912;-87
2023/03/24 13:51:50;;;;;;;;;;;13.70;99.90;;;;;;5074598;28;20259;-88
2023/03/24 13:54:20;;;;;;;;;;;13.70;99.90;;;;;;5087202;28;19998;-90
2023/03/24 13:57:00;;;;;;;;;;;13.60;99.90;;;;;;5094382;28;19916;-87
2023/03/24 13:59:51;;;;;;;;;;;13.40;99.90;;;;;;5095583;28;19913;-86
2023/03/24 14:05:38;;;;;;;;;;;12.90;99.90;;;;;;5095892;28;19915;-86
2023/03/24 14:14:14;;;;;;;;;;;12.30;99.90;;;;;;5100022;28;20270;-90
2023/03/24 14:20:10;;;;;;;;;;;12.20;99.90;;;;;;5116512;28;19915;-88
2023/03/24 14:22:39;;;;;;;;;;;12.20;99.90;;;;;;5108862;28;19982;-87
2023/03/24 14:28:13;;;;;;;;;;;12.30;99.90;;;;;;5116829;28;19938;-90
2023/03/24 14:30:53;;;;;;;;;;;12.20;99.90;;;;;;5095320;28;19915;-92
2023/03/24 14:33:29;;;;;;;;;;;12.20;99.90;;;;;;5113814;28;19904;-89
2023/03/24 14:36:00;;;;;;;;;;;12.20;99.90;;;;;;5126083;27;19902;-91
2023/03/24 14:38:26;;;;;;;;;;;12.10;99.90;;;;;;5110928;28;20011;-90
2023/03/24 14:40:56;;;;;;;;;;;12.20;99.90;;;;;;5098694;28;19955;-93
2023/03/24 14:43:22;;;;;;;;;;;12.20;99.90;;;;;;5112063;28;19916;-87
2023/03/24 14:45:51;;;;;;;;;;;12.20;99.90;;;;;;5085424;28;19950;-89
2023/03/24 14:48:36;;;;;;;;;;;12.30;99.90;;;;;;5085513;28;19904;-89
2023/03/24 14:51:25;;;;;;;;;;;12.30;99.90;;;;;;5086061;28;19904;-90
2023/03/24 14:53:55;;;;;;;;;;;12.50;99.90;;;;;;5084831;28;19904;-92
2023/03/24 14:56:23;;;;;;;;;;;12.60;99.90;;;;;;5089337;28;19930;-92
2023/03/24 14:58:53;;;;;;;;;;;12.70;99.90;;;;;;5084600;28;19946;-90
2023/03/24 15:01:19;;;;;;;;;;;12.90;99.90;;;;;;5081319;28;19923;-90
2023/03/24 15:03:53;;;;;;;;;;;13.00;99.90;;;;;;5107211;28;20002;-92
2023/03/24 15:06:22;;;;;;;;;;;13.20;99.90;;;;;;5100706;28;19903;-90
2023/03/24 15:08:55;;;;;;;;;;;13.30;99.90;;;;;;5101295;28;19904;-92